Time;durP1;ratioP1;P1;durP2;ratioP2;P2;SDS_P1;SDS_P2;PMS_P1;PMS_P2;Temp;Humidity;BMP_temperature;BMP_pressure;BME280_temperature;BME280_humidity;BME280_pressure;Samples;Min_cycle;Max_cycle;Signal;HPM_P1;HPM_P2
2021/12/16 00:01:45;;;;;;;22.77;8.65;;;;;;;15.53;53.43;103489.56;5013410;28;20053;-64
2021/12/16 00:09:00;;;;;;;22.95;9.05;;;;;;;15.10;54.78;103501.88;5013567;28;20053;-64
2021/12/16 00:19:33;;;;;;;34.22;8.90;;;;;;;14.61;56.51;103501.03;4996584;28;20728;-62
2021/12/16 00:33:36;;;;;;;22.27;9.82;;;;;;;15.68;53.63;103501.75;4996665;28;20510;-63
2021/12/16 00:36:04;;;;;;;23.45;9.90;;;;;;;15.17;54.42;103494.16;5013078;28;20042;-63
2021/12/16 00:38:30;;;;;;;23.20;9.73;;;;;;;14.67;56.37;103499.16;5013245;28;20030;-64
2021/12/16 00:40:56;;;;;;;24.88;10.05;;;;;;;15.35;54.37;103495.59;5012757;28;20053;-62
2021/12/16 00:43:31;;;;;;;28.92;10.90;;;;;;;15.59;53.58;103504.25;5013359;28;20053;-61
2021/12/16 00:48:26;;;;;;;23.58;10.15;;;;;;;16.10;51.94;103500.75;5013227;28;20037;-64
2021/12/16 00:56:09;;;;;;;18.30;8.93;;;;;;;16.29;51.44;103495.50;4998323;28;20663;-64
2021/12/16 00:58:43;;;;;;;24.60;9.30;;;;;;;16.37;50.99;103503.25;5013009;28;20058;-64
2021/12/16 01:06:33;;;;;;;20.08;8.18;;;;;;;16.50;50.90;103508.19;5012319;28;20042;-63
2021/12/16 01:36:39;;;;;;;21.63;8.82;;;;;;;15.28;52.82;103536.47;4996007;28;20065;-62
2021/12/16 01:50:02;;;;;;;19.65;9.23;;;;;;;14.57;54.15;103544.06;5012249;28;20045;-66
2021/12/16 01:52:49;;;;;;;19.25;9.50;;;;;;;15.00;53.01;103563.41;4994844;28;20038;-63
2021/12/16 01:55:34;;;;;;;20.95;9.00;;;;;;;15.34;51.52;103558.34;5011664;28;20029;-64
2021/12/16 01:58:11;;;;;;;20.77;8.63;;;;;;;14.57;53.11;103552.34;4994325;28;20041;-63
2021/12/16 02:00:53;;;;;;;25.10;9.10;;;;;;;14.82;52.83;103550.88;5011866;28;20026;-63
2021/12/16 02:03:25;;;;;;;17.40;8.73;;;;;;;15.03;51.90;103560.09;4994254;28;20045;-62
2021/12/16 02:08:23;;;;;;;71.45;9.57;;;;;;;14.75;52.76;103564.09;5011397;28;20046;-63
2021/12/16 02:11:07;;;;;;;28.15;8.52;;;;;;;14.80;52.61;103564.13;5011820;28;20642;-63
2021/12/16 02:13:47;;;;;;;15.85;7.53;;;;;;;15.13;51.48;103556.56;4994033;28;20030;-63
2021/12/16 02:27:40;;;;;;;20.67;8.18;;;;;;;14.69;52.12;103575.06;5011257;28;20093;-64
2021/12/16 02:33:12;;;;;;;19.75;7.55;;;;;;;14.79;52.00;103574.31;5011626;28;20061;-61
2021/12/16 02:35:45;;;;;;;19.40;7.87;;;;;;;14.89;51.84;103579.09;5011595;28;20032;-63
2021/12/16 02:38:14;;;;;;;20.90;8.90;;;;;;;14.64;53.06;103583.31;5011152;28;20026;-64
2021/12/16 02:40:41;;;;;;;21.02;8.55;;;;;;;14.04;55.45;103585.22;4994625;28;20041;-61
2021/12/16 02:43:37;;;;;;;26.83;8.93;;;;;;;14.32;54.88;103586.06;4977897;28;20034;-63
2021/12/16 02:48:42;;;;;;;19.73;9.07;;;;;;;14.62;54.35;103585.53;5011398;28;20046;-62
2021/12/16 02:51:24;;;;;;;18.20;8.90;;;;;;;14.97;53.16;103583.25;5010955;28;20042;-62
2021/12/16 02:53:53;;;;;;;25.08;10.25;;;;;;;14.51;54.27;103578.22;5011356;28;20090;-64
2021/12/16 02:56:19;;;;;;;22.58;9.73;;;;;;;14.58;54.19;103586.28;5010925;28;20027;-62
2021/12/16 02:58:50;;;;;;;21.48;9.48;;;;;;;14.90;53.23;103586.25;4994090;28;20065;-63
2021/12/16 03:01:29;;;;;;;19.38;9.68;;;;;;;15.20;52.19;103582.03;5010915;28;20031;-65
2021/12/16 03:03:56;;;;;;;21.60;9.23;;;;;;;14.42;54.13;103586.16;4994119;28;20031;-64
2021/12/16 03:06:22;;;;;;;21.75;10.27;;;;;;;14.41;54.39;103578.13;5010636;28;20031;-63
2021/12/16 03:08:48;;;;;;;25.08;9.57;;;;;;;14.85;52.71;103581.53;4977973;28;20037;-64
2021/12/16 03:11:31;;;;;;;18.15;9.52;;;;;;;15.03;51.63;103574.75;5010682;28;20031;-63
2021/12/16 03:14:17;;;;;;;26.42;9.70;;;;;;;14.85;52.24;103573.25;4993888;28;20094;-63
2021/12/16 03:36:25;;;;;;;23.23;9.35;;;;;;;14.79;52.00;103587.28;5014604;28;20644;-62
2021/12/16 03:38:26;;;;;;;21.98;9.73;;;;;;;14.93;51.62;103585.72;4998467;28;20046;-64
2021/12/16 03:40:52;;;;;;;24.10;9.93;;;;;;;14.72;52.33;103583.94;4981157;28;20129;-61
2021/12/16 03:43:19;;;;;;;24.15;10.82;;;;;;;14.76;52.65;103579.53;4996777;28;20041;-61
2021/12/16 03:48:46;;;;;;;22.67;10.30;;;;;;;14.09;54.52;103598.25;5014272;28;20038;-62
2021/12/16 03:51:25;;;;;;;22.40;10.38;;;;;;;14.40;54.98;103593.84;5014482;28;20018;-62
2021/12/16 03:53:54;;;;;;;23.40;10.20;;;;;;;14.33;54.96;103584.94;5014201;28;20038;-65
2021/12/16 03:56:21;;;;;;;24.63;10.65;;;;;;;14.17;55.97;103583.16;5013994;28;20030;-61
2021/12/16 03:58:46;;;;;;;28.33;11.30;;;;;;;14.24;55.93;103578.28;5014110;28;20053;-64
2021/12/16 04:01:18;;;;;;;22.90;10.25;;;;;;;14.58;54.96;103576.06;5014023;28;20026;-63
2021/12/16 04:03:44;;;;;;;26.95;10.60;;;;;;;14.64;54.25;103585.25;5013972;28;20042;-62
2021/12/16 04:06:11;;;;;;;24.05;10.20;;;;;;;14.33;55.59;103576.69;5013949;28;20056;-65
2021/12/16 04:08:37;;;;;;;24.55;10.43;;;;;;;14.39;55.38;103574.81;5013677;28;20030;-64
2021/12/16 04:11:20;;;;;;;23.98;9.93;;;;;;;15.13;52.94;103584.19;5014003;28;20034;-62
2021/12/16 04:13:56;;;;;;;25.10;10.48;;;;;;;14.48;54.55;103595.31;5013908;28;20022;-63
2021/12/16 04:16:25;;;;;;;24.08;10.82;;;;;;;14.10;56.31;103595.22;5013464;28;20113;-63
2021/12/16 04:18:51;;;;;;;22.05;10.75;;;;;;;14.43;55.34;103593.34;5013695;28;20439;-63
2021/12/16 04:21:19;;;;;;;25.10;10.35;;;;;;;14.81;53.75;103587.84;4996272;28;20037;-62
2021/12/16 04:23:47;;;;;;;21.13;9.52;;;;;;;15.15;52.88;103598.59;4996312;28;20085;-61
2021/12/16 04:26:13;;;;;;;20.00;9.00;;;;;;;15.16;52.56;103600.22;4996490;28;20026;-62
2021/12/16 04:28:38;;;;;;;23.55;9.93;;;;;;;15.20;52.23;103598.63;5013059;28;20022;-61
2021/12/16 04:31:04;;;;;;;25.13;9.63;;;;;;;14.88;52.82;103602.28;4980135;28;20720;-63
2021/12/16 04:33:30;;;;;;;24.55;9.88;;;;;;;14.55;54.20;103606.13;4995861;28;20038;-64
2021/12/16 04:35:56;;;;;;;20.92;9.45;;;;;;;14.76;53.35;103601.63;4996130;28;20034;-63
2021/12/16 04:38:21;;;;;;;24.73;9.75;;;;;;;14.29;54.71;103598.44;5012920;28;20081;-61
2021/12/16 04:40:48;;;;;;;25.05;10.00;;;;;;;14.09;55.93;103596.34;4996130;28;20057;-63
2021/12/16 04:43:20;;;;;;;20.33;9.88;;;;;;;14.54;53.99;103591.50;4996644;28;20057;-63
2021/12/16 04:45:46;;;;;;;23.38;10.20;;;;;;;14.46;54.77;103592.81;4997026;28;20030;-64
2021/12/16 04:48:12;;;;;;;22.00;9.63;;;;;;;14.66;54.04;103597.69;5013399;28;20053;-61
2021/12/16 04:50:37;;;;;;;19.55;9.35;;;;;;;14.74;53.67;103598.31;5012715;28;20030;-62
2021/12/16 04:53:04;;;;;;;23.60;9.50;;;;;;;13.19;57.80;103590.25;4995912;28;20037;-62
2021/12/16 04:55:29;;;;;;;20.08;9.23;;;;;;;14.25;54.90;103589.03;5012276;28;20038;-64
2021/12/16 04:57:55;;;;;;;22.55;9.35;;;;;;;14.60;53.76;103593.25;4995962;28;20054;-63
2021/12/16 05:00:23;;;;;;;17.25;8.57;;;;;;;14.43;53.45;103606.31;4979692;28;20037;-61
2021/12/16 05:02:50;;;;;;;19.02;8.48;;;;;;;14.51;53.54;103605.84;4995823;28;20030;-62
2021/12/16 05:05:16;;;;;;;;;;;;;;;14.87;52.55;103609.75;4996469;28;20034;-64
2021/12/16 05:07:43;;;;;;;21.40;9.52;;;;;;;14.87;52.32;103606.97;5012486;28;19925;-61
2021/12/16 05:10:10;;;;;;;;;;;;;;;15.32;51.20;103612.19;4964215;28;20022;-63
2021/12/16 05:12:40;;;;;;;20.75;9.27;;;;;;;15.09;51.57;103602.41;5012475;28;19980;-64
2021/12/16 05:15:10;;;;;;;22.85;9.35;;;;;;;15.02;51.82;103609.00;5012661;28;20053;-65
2021/12/16 05:17:42;;;;;;;17.90;9.02;;;;;;;14.83;51.89;103605.84;4995378;28;20034;-62
2021/12/16 05:20:11;;;;;;;15.43;8.35;;;;;;;14.80;51.89;103619.34;5012565;28;20026;-64
2021/12/16 05:28:03;;;;;;;17.58;8.85;;;;;;;14.80;52.14;103620.16;5012393;28;20030;-61
2021/12/16 05:30:29;;;;;;;22.23;8.95;;;;;;;14.78;52.27;103627.03;5012120;28;20023;-63
2021/12/16 05:32:54;;;;;;;22.15;8.82;;;;;;;14.80;52.18;103619.34;5012242;28;20037;-64
2021/12/16 05:35:22;;;;;;;20.38;9.23;;;;;;;14.79;52.32;103620.44;4995010;28;20036;-61
2021/12/16 05:37:48;;;;;;;20.80;9.10;;;;;;;14.73;52.91;103629.78;5011787;28;20085;-64
2021/12/16 05:40:16;;;;;;;20.23;9.40;;;;;;;14.56;53.01;103639.00;4978905;28;20062;-64
2021/12/16 05:42:42;;;;;;;21.23;9.52;;;;;;;14.87;52.46;103653.94;4994454;28;20034;-64
2021/12/16 05:45:09;;;;;;;22.38;10.25;;;;;;;14.90;52.57;103635.97;5012181;28;20105;-64
2021/12/16 05:47:35;;;;;;;19.55;9.02;;;;;;;15.01;52.15;103639.66;5011943;28;20054;-63
2021/12/16 05:50:01;;;;;;;23.00;9.73;;;;;;;14.89;52.31;103634.34;5011306;28;20030;-64
2021/12/16 05:52:26;;;;;;;18.80;9.23;;;;;;;15.00;52.03;103641.59;5012174;28;20027;-63
2021/12/16 05:54:52;;;;;;;20.23;9.18;;;;;;;14.83;53.00;103651.97;4994387;28;20098;-62
2021/12/16 05:57:17;;;;;;;18.23;9.25;;;;;;;14.82;52.56;103655.81;4995040;28;20034;-64
2021/12/16 05:59:43;;;;;;;19.98;9.05;;;;;;;14.82;52.51;103655.81;4994196;28;20031;-64
2021/12/16 06:02:08;;;;;;;16.48;8.63;;;;;;;14.87;52.49;103653.09;4978608;28;20061;-64
2021/12/16 06:04:34;;;;;;;17.88;8.60;;;;;;;15.20;51.53;103645.59;4978089;28;20050;-62
2021/12/16 06:06:59;;;;;;;20.42;9.20;;;;;;;15.08;51.82;103636.66;4994678;28;20082;-65
2021/12/16 06:09:25;;;;;;;18.65;8.82;;;;;;;15.15;51.60;103643.63;4994532;28;20029;-61
2021/12/16 06:11:52;;;;;;;23.00;9.10;;;;;;;15.07;51.27;103640.53;4994012;28;20034;-61
2021/12/16 06:14:44;;;;;;;;;;;;;;;15.15;50.67;103648.31;4979142;28;20129;-62
2021/12/16 06:28:08;;;;;;;21.52;9.27;;;;;;;14.81;51.64;103662.41;5011716;28;20049;-61
2021/12/16 06:30:41;;;;;;;15.68;8.23;;;;;;;14.86;51.43;103665.25;4994320;28;20023;-62
2021/12/16 06:33:09;;;;;;;16.65;8.82;;;;;;;14.74;51.29;103681.16;5011579;28;20024;-62
2021/12/16 06:35:35;;;;;;;16.13;8.73;;;;;;;14.75;51.71;103677.31;4993580;28;20026;-62
2021/12/16 06:38:01;;;;;;;16.42;8.95;;;;;;;14.81;51.43;103684.50;4978131;28;20030;-63
2021/12/16 06:40:26;;;;;;;20.17;9.18;;;;;;;14.88;51.11;103688.72;4994300;28;20034;-61
2021/12/16 06:42:55;;;;;;;20.95;8.65;;;;;;;14.90;51.02;103682.94;5010950;28;20111;-63
2021/12/16 06:45:26;;;;;;;18.00;8.52;;;;;;;14.86;50.90;103690.09;4994657;28;20077;-62
2021/12/16 06:48:02;;;;;;;20.17;8.60;;;;;;;14.53;51.88;103683.69;4993577;28;20030;-62
2021/12/16 06:50:52;;;;;;;19.02;8.77;;;;;;;14.71;51.73;103699.06;5011477;28;20029;-62
2021/12/16 06:53:28;;;;;;;15.95;8.90;;;;;;;14.85;51.62;103694.78;4994058;28;20491;-61
2021/12/16 06:56:05;;;;;;;15.73;8.32;;;;;;;14.48;51.62;103689.16;4993541;28;20057;-64
2021/12/16 07:01:36;;;;;;;18.30;9.70;;;;;;;14.58;51.93;103705.00;5012954;28;20042;-64
2021/12/16 07:03:47;;;;;;;17.42;9.05;;;;;;;14.25;52.55;103713.22;5013840;28;20038;-63
2021/12/16 07:06:22;;;;;;;17.30;8.68;;;;;;;14.24;52.25;103706.00;5015174;28;20023;-61
2021/12/16 07:08:52;;;;;;;17.05;8.57;;;;;;;13.57;54.97;103712.59;5014285;28;20022;-62
2021/12/16 07:11:18;;;;;;;21.30;9.18;;;;;;;13.47;55.07;103716.03;4997434;28;20023;-62
2021/12/16 07:13:55;;;;;;;18.38;9.25;;;;;;;13.45;55.29;103715.44;4996840;28;20034;-63
2021/12/16 07:16:21;;;;;;;18.75;9.00;;;;;;;14.00;53.37;103716.50;5014607;28;20041;-62
2021/12/16 07:18:46;;;;;;;16.90;8.85;;;;;;;13.92;52.67;103719.69;4996532;28;20026;-64
2021/12/16 07:21:12;;;;;;;16.10;8.50;;;;;;;13.99;52.85;103728.59;4996926;28;20038;-61
2021/12/16 07:23:37;;;;;;;19.17;8.40;;;;;;;14.12;52.62;103735.66;5013970;28;20069;-64
2021/12/16 07:26:03;;;;;;;19.33;9.15;;;;;;;13.70;53.70;103741.72;4996471;28;20026;-61
2021/12/16 07:28:29;;;;;;;20.10;9.88;;;;;;;13.43;54.69;103737.75;5014329;28;20038;-63
2021/12/16 07:30:55;;;;;;;17.70;9.38;;;;;;;12.47;57.81;103748.69;5014065;28;20023;-62
2021/12/16 07:33:20;;;;;;;17.95;9.88;;;;;;;12.97;57.08;103741.66;4996902;28;20022;-61
2021/12/16 07:35:46;;;;;;;21.38;10.25;;;;;;;13.90;53.76;103744.78;5013294;28;20030;-62
2021/12/16 07:38:12;;;;;;;19.33;9.48;;;;;;;13.78;53.76;103755.06;4996753;28;20026;-63
2021/12/16 07:40:39;;;;;;;15.85;8.40;;;;;;;14.13;52.54;103745.63;4997187;28;20027;-64
2021/12/16 07:45:40;;;;;;;21.33;9.30;;;;;;;13.95;53.28;103772.41;5014330;28;20038;-65
2021/12/16 07:48:06;;;;;;;20.00;9.00;;;;;;;14.01;52.68;103784.34;5013933;28;20030;-63
2021/12/16 07:50:32;;;;;;;19.35;9.35;;;;;;;14.07;52.13;103771.47;4996993;28;20082;-63
2021/12/16 07:52:58;;;;;;;21.92;9.02;;;;;;;13.95;52.76;103766.91;5013841;28;20026;-62
2021/12/16 07:55:23;;;;;;;20.10;9.82;;;;;;;13.94;53.08;103773.50;5014230;28;20042;-61
2021/12/16 07:57:49;;;;;;;22.25;10.43;;;;;;;14.14;52.88;103795.00;5013601;28;20034;-61
2021/12/16 08:00:27;;;;;;;20.15;9.88;;;;;;;14.07;53.17;103793.53;5013893;28;20027;-61
2021/12/16 08:02:53;;;;;;;21.60;9.77;;;;;;;12.79;56.16;103787.59;4996514;28;20026;-61
2021/12/16 08:05:22;;;;;;;23.65;9.80;;;;;;;13.74;53.82;103787.84;4980472;28;20098;-62
2021/12/16 08:07:49;;;;;;;25.40;10.95;;;;;;;14.00;53.21;103795.63;4996266;28;20026;-63
2021/12/16 08:10:18;;;;;;;20.83;9.20;;;;;;;14.00;52.98;103785.44;5014056;28;20037;-64
2021/12/16 08:12:44;;;;;;;19.45;9.82;;;;;;;13.14;55.25;103782.97;4996095;28;20037;-65
2021/12/16 08:15:10;;;;;;;19.90;9.38;;;;;;;13.60;53.77;103795.63;4996561;28;20101;-63
2021/12/16 08:17:37;;;;;;;20.30;9.55;;;;;;;13.38;54.63;103802.97;5013461;28;20039;-62
2021/12/16 08:20:04;;;;;;;21.00;10.70;;;;;;;13.59;54.69;103788.44;4996374;28;20058;-61
2021/12/16 08:22:30;;;;;;;;;;;;;;;14.26;53.04;103791.28;5010544;28;20023;-64
2021/12/16 08:24:55;;;;;;;20.50;10.65;;;;;;;14.19;53.33;103808.06;4995160;28;19932;-63
2021/12/16 08:27:21;;;;;;;21.23;11.23;;;;;;;14.31;53.41;103814.25;5013502;28;20042;-64
2021/12/16 08:29:46;;;;;;;25.45;11.50;;;;;;;13.61;55.41;103802.78;4996106;28;20035;-61
2021/12/16 08:32:12;;;;;;;23.75;10.57;;;;;;;14.38;53.39;103796.66;5013152;28;20030;-62
2021/12/16 08:34:39;;;;;;;24.00;11.48;;;;;;;14.50;53.20;103809.25;5013719;28;20026;-63
2021/12/16 08:37:09;;;;;;;20.23;10.68;;;;;;;14.77;52.69;103814.00;5022726;28;20045;-65
2021/12/16 08:39:35;;;;;;;24.48;11.27;;;;;;;13.60;56.27;103823.19;5017999;28;20026;-63
2021/12/16 08:42:03;;;;;;;23.55;11.25;;;;;;;13.85;56.20;103808.09;5019900;28;20034;-65
2021/12/16 08:44:29;;;;;;;21.55;11.25;;;;;;;14.62;53.84;103819.34;5017347;28;20083;-64
2021/12/16 08:47:02;;;;;;;26.60;12.07;;;;;;;14.53;54.71;103821.72;5008278;28;20034;-62
2021/12/16 08:49:28;;;;;;;26.17;11.05;;;;;;;14.88;53.69;103832.34;5023417;28;20086;-61
2021/12/16 08:51:56;;;;;;;21.73;11.65;;;;;;;14.67;54.72;103828.53;5017741;28;20510;-63
2021/12/16 08:54:22;;;;;;;23.75;12.00;;;;;;;14.99;53.88;103838.00;5022976;28;20026;-63
2021/12/16 08:56:48;;;;;;;26.83;12.57;;;;;;;15.27;53.38;103839.66;5017141;28;20101;-64
2021/12/16 08:59:14;;;;;;;23.17;12.10;;;;;;;15.33;53.45;103849.66;5003977;28;20061;-63
2021/12/16 09:01:44;;;;;;;25.48;11.57;;;;;;;15.47;53.09;103846.47;5021968;28;20148;-64
2021/12/16 09:04:10;;;;;;;24.38;11.93;;;;;;;15.71;52.65;103839.44;5022005;28;20026;-63
2021/12/16 09:06:37;;;;;;;25.50;12.40;;;;;;;15.19;54.30;103843.72;5004469;28;20050;-64
2021/12/16 09:09:05;;;;;;;25.20;12.95;;;;;;;15.55;53.75;103845.97;5020555;28;20025;-62
2021/12/16 09:11:34;;;;;;;28.92;13.63;;;;;;;15.92;53.05;103853.47;5019149;28;20014;-62
2021/12/16 09:14:00;;;;;;;25.73;13.27;;;;;;;15.21;55.20;103857.28;5000954;28;20041;-64
2021/12/16 09:16:28;;;;;;;25.88;13.32;;;;;;;15.09;56.18;103857.44;5019881;28;20033;-63
2021/12/16 09:18:55;;;;;;;31.73;14.02;;;;;;;15.29;55.93;103847.66;5019358;28;20030;-64
2021/12/16 09:21:26;;;;;;;27.87;14.43;;;;;;;15.54;55.81;103847.91;5020618;28;20442;-61
2021/12/16 09:23:53;;;;;;;28.17;14.52;;;;;;;15.73;55.55;103853.88;5001550;28;20042;-62
2021/12/16 09:26:19;;;;;;;28.17;15.95;;;;;;;16.01;55.15;103853.81;5012205;28;20037;-63
2021/12/16 09:28:46;;;;;;;30.52;15.73;;;;;;;16.18;54.57;103861.91;4994934;28;20031;-66
2021/12/16 09:31:14;;;;;;;30.73;16.67;;;;;;;16.24;54.90;103860.84;5021961;28;20025;-66
2021/12/16 09:33:43;;;;;;;28.55;16.00;;;;;;;16.03;55.89;103857.13;5014467;28;20029;-62
2021/12/16 09:36:11;;;;;;;31.23;16.33;;;;;;;15.85;56.27;103858.41;5004058;28;20021;-66
2021/12/16 09:38:37;;;;;;;35.40;17.67;;;;;;;15.91;56.45;103862.88;5006726;28;20030;-64
2021/12/16 09:41:04;;;;;;;31.10;16.50;;;;;;;15.63;57.15;103867.59;5016171;28;20027;-64
2021/12/16 09:43:33;;;;;;;34.47;16.80;;;;;;;15.28;58.38;103854.31;5001290;28;20089;-63
2021/12/16 09:46:02;;;;;;;30.33;16.52;;;;;;;15.96;56.83;103865.66;5018217;28;20026;-64
2021/12/16 09:48:30;;;;;;;31.95;17.08;;;;;;;15.93;56.35;103878.09;5015807;28;20043;-64
2021/12/16 09:50:57;;;;;;;26.25;16.55;;;;;;;15.59;57.61;103872.84;5020388;28;20021;-66
2021/12/16 09:53:23;;;;;;;36.05;16.10;;;;;;;16.09;56.99;103876.25;5000820;28;20061;-66
2021/12/16 09:55:57;;;;;;;37.55;18.25;;;;;;;16.43;56.64;103878.69;4999365;28;20026;-63
2021/12/16 09:58:23;;;;;;;40.55;17.35;;;;;;;16.96;54.87;103870.31;5013057;28;20056;-66
2021/12/16 10:00:48;;;;;;;41.25;17.15;;;;;;;16.57;56.46;103867.91;5018274;28;20042;-64
2021/12/16 10:03:14;;;;;;;32.08;17.45;;;;;;;16.95;56.23;103876.13;4999299;28;20037;-65
2021/12/16 10:05:40;;;;;;;39.00;18.48;;;;;;;17.35;55.80;103893.94;4999624;28;20057;-65
2021/12/16 10:08:08;;;;;;;34.95;17.70;;;;;;;17.87;53.67;103892.84;5019492;28;20057;-63
2021/12/16 10:10:34;;;;;;;30.98;16.83;;;;;;;17.10;55.38;103886.41;5019928;28;20109;-63
2021/12/16 10:13:02;;;;;;;27.33;16.55;;;;;;;16.81;56.58;103884.94;5019766;28;20033;-66
2021/12/16 10:18:00;;;;;;;29.45;15.85;;;;;;;17.68;54.82;103892.56;5025065;28;20018;-65
2021/12/16 10:20:29;;;;;;;27.25;15.60;;;;;;;17.18;56.02;103892.25;5019118;28;20029;-64
2021/12/16 10:23:29;;;;;;;28.50;16.00;;;;;;;17.87;54.80;103884.50;5013799;28;20034;-63
2021/12/16 10:25:57;;;;;;;31.27;15.68;;;;;;;17.80;54.24;103894.22;4989525;28;20040;-64
2021/12/16 10:28:23;;;;;;;25.67;15.70;;;;;;;18.30;53.42;103893.31;5020221;28;20113;-65
2021/12/16 10:31:16;;;;;;;24.85;15.27;;;;;;;18.77;53.04;103887.59;5022620;28;20018;-65
2021/12/16 10:33:45;;;;;;;24.20;13.63;;;;;;;18.36;54.08;103891.38;5006328;28;20030;-66
2021/12/16 10:36:12;;;;;;;26.88;14.82;;;;;;;18.43;53.59;103891.06;5018281;28;20051;-65
2021/12/16 10:39:28;;;;;;;27.08;14.75;;;;;;;18.70;54.25;103889.84;5021842;28;20056;-62
2021/12/16 10:41:59;;;;;;;29.35;14.63;;;;;;;19.35;52.10;103887.81;4996473;28;20050;-66
2021/12/16 10:44:28;;;;;;;22.45;13.80;;;;;;;19.84;51.13;103897.19;5022606;28;20022;-63
2021/12/16 10:47:00;;;;;;;25.25;14.48;;;;;;;19.85;51.33;103890.50;4996150;28;20057;-63
2021/12/16 10:49:29;;;;;;;22.88;13.45;;;;;;;19.93;51.31;103889.00;4994823;28;20050;-65
2021/12/16 10:52:15;;;;;;;23.25;12.93;;;;;;;20.35;49.75;103895.00;4995724;28;20050;-64
2021/12/16 10:54:44;;;;;;;23.83;11.65;;;;;;;20.34;50.35;103884.97;5027082;28;20018;-68
2021/12/16 10:57:13;;;;;;;21.80;12.18;;;;;;;20.84;49.24;103894.66;5021753;28;20023;-64
2021/12/16 10:59:51;;;;;;;20.90;11.20;;;;;;;21.35;47.51;103895.03;4992855;28;20058;-66
2021/12/16 11:02:22;;;;;;;22.33;12.15;;;;;;;21.45;47.43;103888.47;5015627;28;20026;-63
2021/12/16 11:05:08;;;;;;;20.33;10.85;;;;;;;21.01;46.56;103901.66;5015893;28;20029;-65
2021/12/16 11:07:36;;;;;;;17.80;10.23;;;;;;;21.30;45.87;103903.47;5006622;28;20045;-65
2021/12/16 11:10:08;;;;;;;21.17;11.10;;;;;;;21.13;47.62;103896.47;5019136;28;20024;-65
2021/12/16 11:12:52;;;;;;;22.80;12.18;;;;;;;21.07;46.19;103900.47;5015932;28;20053;-65
2021/12/16 11:15:29;;;;;;;23.25;11.57;;;;;;;20.75;47.01;103901.22;5027151;28;20026;-64
2021/12/16 11:18:20;;;;;;;22.00;10.90;;;;;;;21.00;46.45;103886.91;5016647;28;20018;-63
2021/12/16 11:21:07;;;;;;;21.25;11.63;;;;;;;21.37;45.17;103884.38;5008872;28;20094;-67
2021/12/16 11:23:37;;;;;;;18.95;11.52;;;;;;;21.31;44.32;103888.41;5015934;28;20054;-64
2021/12/16 11:26:10;;;;;;;21.50;11.50;;;;;;;21.12;45.21;103886.44;5008013;28;20026;-64
2021/12/16 11:28:45;;;;;;;20.80;11.15;;;;;;;21.48;44.84;103888.69;5010594;28;20121;-63
2021/12/16 11:31:30;;;;;;;18.13;10.98;;;;;;;21.41;45.30;103881.81;5010304;28;20033;-64
2021/12/16 11:33:59;;;;;;;21.38;11.00;;;;;;;21.43;44.17;103890.69;5010834;28;20800;-65
2021/12/16 11:36:40;;;;;;;22.48;11.32;;;;;;;21.44;44.10;103882.03;5010296;28;20041;-66
2021/12/16 11:39:27;;;;;;;18.65;10.57;;;;;;;21.59;43.82;103883.78;4993396;28;20114;-65
2021/12/16 11:42:02;;;;;;;24.30;11.35;;;;;;;21.46;43.96;103878.94;4994073;28;20039;-66
2021/12/16 11:44:29;;;;;;;22.92;11.82;;;;;;;21.24;44.35;103882.34;5010248;28;20057;-66
2021/12/16 11:47:09;;;;;;;;;;;;;;;21.58;44.01;103881.28;5011809;28;20037;-66
2021/12/16 11:49:57;;;;;;;22.33;11.18;;;;;;;21.64;43.86;103880.06;5013907;28;19973;-65
2021/12/16 11:52:27;;;;;;;21.98;11.77;;;;;;;21.41;44.15;103870.66;5013584;28;20844;-66
2021/12/16 11:55:07;;;;;;;19.33;11.15;;;;;;;21.25;44.51;103882.06;4996775;28;20022;-63
2021/12/16 11:57:47;;;;;;;27.77;11.90;;;;;;;21.20;44.51;103873.78;4996431;28;20088;-63
2021/12/16 12:00:15;;;;;;;24.35;11.48;;;;;;;21.01;44.49;103876.56;4996340;28;20025;-66
2021/12/16 12:02:50;;;;;;;23.90;11.77;;;;;;;21.15;44.60;103873.84;5013963;28;20056;-64
2021/12/16 12:05:27;;;;;;;21.88;10.55;;;;;;;21.07;44.62;103869.78;5013588;28;20058;-63
2021/12/16 12:08:07;;;;;;;18.35;11.10;;;;;;;20.75;45.62;103865.78;4996570;28;20038;-63
2021/12/16 12:10:40;;;;;;;22.60;11.02;;;;;;;20.68;45.34;103870.06;5013519;28;20029;-65
2021/12/16 12:13:09;;;;;;;19.90;10.25;;;;;;;20.36;45.62;103879.91;5013835;28;20026;-65
2021/12/16 12:15:58;;;;;;;19.05;9.77;;;;;;;20.59;45.53;103872.69;5013548;28;20037;-64
2021/12/16 12:18:29;;;;;;;21.27;10.38;;;;;;;20.22;46.59;103863.06;5013084;28;20090;-63
2021/12/16 12:21:33;;;;;;;20.13;9.43;;;;;;;20.01;46.86;103868.91;5013779;28;20041;-62
2021/12/16 12:24:13;;;;;;;17.42;8.43;;;;;;;20.33;46.39;103866.56;4996362;28;20151;-67
2021/12/16 12:26:45;;;;;;;19.73;9.57;;;;;;;19.81;47.15;103860.75;4995826;28;20034;-66
2021/12/16 12:29:28;;;;;;;16.88;7.90;;;;;;;19.62;46.82;103861.44;4996322;28;20034;-63
2021/12/16 12:32:15;;;;;;;18.35;7.72;;;;;;;19.84;46.59;103857.38;5013427;28;20051;-64
2021/12/16 12:34:45;;;;;;;15.07;7.00;;;;;;;19.80;45.66;103864.66;4995764;28;20026;-63
2021/12/16 12:37:19;;;;;;;13.30;6.97;;;;;;;19.98;45.35;103861.13;5013457;28;20114;-67
2021/12/16 12:39:50;;;;;;;15.25;6.97;;;;;;;19.50;46.66;103856.28;4995960;28;20429;-64
2021/12/16 12:42:17;;;;;;;13.93;6.60;;;;;;;19.80;45.98;103859.09;4996184;28;20086;-66
2021/12/16 12:44:44;;;;;;;17.08;7.40;;;;;;;19.77;46.04;103860.50;5013157;28;20037;-66
2021/12/16 12:47:15;;;;;;;18.42;7.95;;;;;;;19.51;46.64;103865.44;4995621;28;20193;-66
2021/12/16 12:49:41;;;;;;;17.63;8.02;;;;;;;19.51;46.97;103865.44;5012638;28;20061;-64
2021/12/16 12:52:13;;;;;;;16.35;8.25;;;;;;;19.30;47.83;103870.34;5013046;28;20022;-63
2021/12/16 12:54:42;;;;;;;13.82;7.05;;;;;;;19.53;46.69;103868.75;4995264;28;20049;-63
2021/12/16 12:57:21;;;;;;;13.32;7.10;;;;;;;19.33;47.12;103876.16;5012774;28;20510;-65
2021/12/16 12:59:47;;;;;;;15.13;6.63;;;;;;;19.26;47.15;103878.41;5012742;28;20037;-66
2021/12/16 13:02:27;;;;;;;14.45;6.55;;;;;;;19.57;46.08;103873.44;4995375;28;20026;-65
2021/12/16 13:04:57;;;;;;;14.68;6.65;;;;;;;19.37;46.58;103868.88;5012615;28;20034;-63
2021/12/16 13:07:43;;;;;;;15.98;7.15;;;;;;;19.19;47.12;103866.81;5011798;28;20042;-63
2021/12/16 13:10:15;;;;;;;15.63;7.00;;;;;;;19.50;46.35;103869.34;5012878;28;20022;-65
2021/12/16 13:12:51;;;;;;;15.38;6.38;;;;;;;18.78;47.93;103870.63;5012469;28;20041;-65
2021/12/16 13:15:23;;;;;;;14.88;6.45;;;;;;;19.26;46.75;103867.28;5013009;28;20057;-65
2021/12/16 13:23:36;;;;;;;14.13;6.85;;;;;;;19.21;46.92;103867.34;5011470;28;20056;-62
2021/12/16 13:29:31;;;;;;;13.60;6.35;;;;;;;19.71;45.28;103859.69;5011463;28;20027;-65
2021/12/16 13:32:16;;;;;;;16.60;6.55;;;;;;;19.54;45.88;103865.69;5008140;28;20129;-63
2021/12/16 13:35:31;;;;;;;17.17;7.28;;;;;;;19.53;46.06;103858.44;5010364;28;20026;-65
2021/12/16 13:37:57;;;;;;;13.77;6.35;;;;;;;18.79;47.51;103868.69;5009488;28;20053;-66
2021/12/16 13:40:30;;;;;;;13.68;5.90;;;;;;;19.11;47.20;103859.91;5011371;28;20030;-64
2021/12/16 13:42:57;;;;;;;12.35;5.25;;;;;;;18.89;47.35;103863.09;5011542;28;20037;-63
2021/12/16 13:46:15;;;;;;;12.38;5.70;;;;;;;18.91;47.29;103862.81;4994433;28;20026;-65
2021/12/16 13:49:13;;;;;;;11.80;5.32;;;;;;;19.14;46.43;103861.28;4985540;28;20101;-63
2021/12/16 14:03:45;;;;;;;12.63;6.68;;;;;;;19.94;44.82;103868.41;5009710;28;20041;-63
2021/12/16 14:06:16;;;;;;;14.63;6.10;;;;;;;19.91;44.62;103869.81;4981438;28;20030;-63
2021/12/16 14:08:49;;;;;;;14.70;5.70;;;;;;;19.50;45.82;103870.19;5011344;28;20031;-61
2021/12/16 14:18:00;;;;;;;11.25;5.55;;;;;;;20.01;44.41;103891.19;5005354;28;20030;-63
2021/12/16 14:23:36;;;;;;;14.02;6.03;;;;;;;19.74;44.93;103892.50;5012537;28;20061;-66
2021/12/16 14:32:57;;;;;;;15.25;6.80;;;;;;;19.13;46.10;103881.88;5019993;28;20033;-65